• Join FlightAware (Why Join?)
  • Login
  • US Flag 
03:07AM EDT


 

Airport Tracker/Info


-or-


 

Live Flight TrackerFlight Track Log ✈ FLG3800 ✈ 20-Jul-2013 ✈ KSBN - KDTW

Flight Track Log - Related Links

Times and Time Zones

All times are in EDT time to prevent confusion due to time zone crossing. See the FLG3800 flight status page for this flight to view local times or setup timezone preferences in your user account.

Time Position Orientation Groundspeed Altitude Reporting Facility
EDT Latitude Longitude Course Direction KTS MPH feet Rate Location/Type
08:04AM 41.7083 -86.3625 73° East 161 185 2,200  Level Chicago Center
08:05AM 41.7503 -86.3644 358° North 219 252 4,500 2,040 Climbing Chicago Center
08:06AM 41.7697 -86.2767 73° East 244 281 6,400 1,860 Climbing Chicago Center
08:07AM 41.7667 -86.0256 90° East  Level FlightAware Approximate
08:08AM 41.7849 -85.9274 71° East  Level FlightAware Approximate
08:08AM 41.7908 -86.1700 75° East 288 331 8,300  Level Chicago Center
08:09AM 41.8091 -85.8304 71° East  Level FlightAware Approximate
08:09AM 41.8147 -86.0511 75° East 325 374 10,000  Level Chicago Center
08:10AM 41.8346 -85.7225 73° East  Level FlightAware Approximate
08:10AM 41.8464 -85.8931 75° East 365 420 11,800  Level Chicago Center
08:11AM 41.8747 -85.7506 75° East 390 449 13,300 1,020 Climbing Chicago Center
08:12AM 41.9039 -85.6006 75° East 409 471 14,000 780 Climbing Chicago Center
08:13AM 41.9336 -85.4414 76° East 430 495 15,000 480 Climbing Chicago Center
08:14AM 41.9647 -85.2797 75° East 441 507 15,000 -60 Level Chicago Center
08:15AM 41.9614 -85.1075 91° East 467 537 14,900  Descending Chicago Center
08:16AM 41.9406 -84.9422 100° East 451 519 15,000 -420 Climbing Chicago Center
08:17AM 41.9194 -84.7708 99° East 462 532 14,100 -960 Descending Chicago Center
08:18AM 41.8983 -84.6008 99° East 461 531 13,100 -1,020 Descending Chicago Center
08:19AM 41.8761 -84.4356 100° East 455 524 12,100 -660 Descending Chicago Center
08:19AM 41.8578 -84.3053 101° East 444 511 12,000 -60 Descending Cleveland Center
08:21AM 41.8311 -84.0975 100° East 443 510 12,000  Level Cleveland Center
08:22AM 41.8789 -83.9606 65° Northeast 393 452 12,000  Level Cleveland Center
08:23AM 41.9633 -83.8561 43° Northeast 378 435 12,000  Level Cleveland Center
08:24AM 42.0475 -83.7486 43° Northeast 394 453 12,000  Level Cleveland Center
08:25AM 42.1517 -83.6053 46° Northeast 426 490 12,000 -60 Level Cleveland Center
08:26AM 42.1653 -83.4742 82° East 405 466 11,900 -60 Descending Cleveland Center
08:27AM 42.1728 -83.3400 86° East 375 432 11,900 -360 Level Cleveland Center
08:28AM 42.1775 -83.2283 87° East 323 372 11,200 -1,200 Descending Cleveland Center
08:29AM 42.2314 -83.1547 45° Northeast 278 320 9,500 -1,980 Descending Cleveland Center
08:30AM 42.3114 -83.1186 18° North 232 267 6,800 -1,920 Descending Cleveland Center
08:31AM 42.3739 -83.1239 356° North 220 253 5,000 -1,260 Descending Cleveland Center
08:32AM 42.3722 -83.1969 268° West 212 244 4,300 -900 Descending Cleveland Center
08:33AM 42.3375 -83.2489 228° Southwest 182 209 3,300 -1,020 Descending Cleveland Center